sensor_id;sensor_type;location;lat;lon;timestamp;P1;durP1;ratioP1;P2;durP2;ratioP2
70270;SDS011;57680;54.292;18.598;2023-12-20T00:01:08;2.03;;;0.80;;
70270;SDS011;57680;54.292;18.598;2023-12-20T00:03:33;2.73;;;0.90;;
70270;SDS011;57680;54.292;18.598;2023-12-20T00:05:58;2.20;;;0.70;;
70270;SDS011;57680;54.292;18.598;2023-12-20T00:08:24;1.93;;;0.70;;
70270;SDS011;57680;54.292;18.598;2023-12-20T00:10:49;2.03;;;0.70;;
70270;SDS011;57680;54.292;18.598;2023-12-20T00:13:14;2.33;;;0.90;;
70270;SDS011;57680;54.292;18.598;2023-12-20T00:15:40;3.20;;;0.97;;
70270;SDS011;57680;54.292;18.598;2023-12-20T00:18:05;2.40;;;0.70;;
70270;SDS011;57680;54.292;18.598;2023-12-20T00:20:30;2.70;;;0.75;;
70270;SDS011;57680;54.292;18.598;2023-12-20T00:22:56;2.17;;;0.70;;
70270;SDS011;57680;54.292;18.598;2023-12-20T00:25:22;2.45;;;0.93;;
70270;SDS011;57680;54.292;18.598;2023-12-20T00:27:47;3.10;;;1.10;;
70270;SDS011;57680;54.292;18.598;2023-12-20T00:30:12;2.53;;;0.73;;
70270;SDS011;57680;54.292;18.598;2023-12-20T00:32:38;2.30;;;0.80;;
70270;SDS011;57680;54.292;18.598;2023-12-20T00:35:03;3.07;;;0.90;;
70270;SDS011;57680;54.292;18.598;2023-12-20T00:37:29;2.10;;;0.87;;
70270;SDS011;57680;54.292;18.598;2023-12-20T00:39:54;2.03;;;0.80;;
70270;SDS011;57680;54.292;18.598;2023-12-20T00:42:19;2.77;;;0.87;;
70270;SDS011;57680;54.292;18.598;2023-12-20T00:44:45;3.07;;;0.60;;
70270;SDS011;57680;54.292;18.598;2023-12-20T00:47:10;2.00;;;0.80;;
70270;SDS011;57680;54.292;18.598;2023-12-20T00:49:35;3.20;;;1.03;;
70270;SDS011;57680;54.292;18.598;2023-12-20T00:52:00;2.00;;;0.80;;
70270;SDS011;57680;54.292;18.598;2023-12-20T00:54:26;3.03;;;0.70;;
70270;SDS011;57680;54.292;18.598;2023-12-20T00:56:51;1.77;;;0.73;;
70270;SDS011;57680;54.292;18.598;2023-12-20T00:59:16;2.17;;;0.83;;
70270;SDS011;57680;54.292;18.598;2023-12-20T01:01:42;2.75;;;0.80;;
70270;SDS011;57680;54.292;18.598;2023-12-20T01:04:07;2.43;;;0.60;;
70270;SDS011;57680;54.292;18.598;2023-12-20T01:06:32;2.60;;;0.50;;
70270;SDS011;57680;54.292;18.598;2023-12-20T01:08:58;1.13;;;0.50;;
70270;SDS011;57680;54.292;18.598;2023-12-20T01:11:23;1.10;;;0.50;;
70270;SDS011;57680;54.292;18.598;2023-12-20T01:13:48;1.17;;;0.60;;
70270;SDS011;57680;54.292;18.598;2023-12-20T01:16:13;2.43;;;0.50;;
70270;SDS011;57680;54.292;18.598;2023-12-20T01:18:39;1.93;;;0.60;;
70270;SDS011;57680;54.292;18.598;2023-12-20T01:21:04;2.30;;;0.47;;
70270;SDS011;57680;54.292;18.598;2023-12-20T01:23:30;1.10;;;0.30;;
70270;SDS011;57680;54.292;18.598;2023-12-20T01:25:55;1.05;;;0.40;;
70270;SDS011;57680;54.292;18.598;2023-12-20T01:28:20;4.20;;;0.63;;
70270;SDS011;57680;54.292;18.598;2023-12-20T01:30:46;0.97;;;0.40;;
70270;SDS011;57680;54.292;18.598;2023-12-20T01:33:11;1.73;;;0.40;;
70270;SDS011;57680;54.292;18.598;2023-12-20T01:35:37;1.67;;;0.60;;
70270;SDS011;57680;54.292;18.598;2023-12-20T01:38:02;2.60;;;0.50;;
70270;SDS011;57680;54.292;18.598;2023-12-20T01:40:27;2.10;;;0.60;;
70270;SDS011;57680;54.292;18.598;2023-12-20T01:42:59;1.90;;;0.30;;
70270;SDS011;57680;54.292;18.598;2023-12-20T01:45:31;1.10;;;0.30;;
70270;SDS011;57680;54.292;18.598;2023-12-20T01:47:56;2.00;;;0.50;;
70270;SDS011;57680;54.292;18.598;2023-12-20T01:50:23;1.95;;;0.50;;
70270;SDS011;57680;54.292;18.598;2023-12-20T01:52:48;1.57;;;0.50;;
70270;SDS011;57680;54.292;18.598;2023-12-20T01:55:14;1.20;;;0.40;;
70270;SDS011;57680;54.292;18.598;2023-12-20T01:57:40;4.10;;;0.50;;
70270;SDS011;57680;54.292;18.598;2023-12-20T02:00:06;2.37;;;0.50;;
70270;SDS011;57680;54.292;18.598;2023-12-20T02:02:32;4.25;;;0.50;;
70270;SDS011;57680;54.292;18.598;2023-12-20T02:04:58;2.00;;;0.50;;
70270;SDS011;57680;54.292;18.598;2023-12-20T02:07:23;2.03;;;0.50;;
70270;SDS011;57680;54.292;18.598;2023-12-20T02:09:49;2.00;;;0.40;;
70270;SDS011;57680;54.292;18.598;2023-12-20T02:12:15;2.55;;;0.60;;
70270;SDS011;57680;54.292;18.598;2023-12-20T02:14:40;5.33;;;0.60;;
70270;SDS011;57680;54.292;18.598;2023-12-20T02:17:05;0.90;;;0.40;;
70270;SDS011;57680;54.292;18.598;2023-12-20T02:19:31;3.50;;;0.60;;
70270;SDS011;57680;54.292;18.598;2023-12-20T02:22:09;5.67;;;0.90;;
70270;SDS011;57680;54.292;18.598;2023-12-20T02:24:35;2.78;;;0.80;;
70270;SDS011;57680;54.292;18.598;2023-12-20T02:27:00;3.00;;;0.70;;
70270;SDS011;57680;54.292;18.598;2023-12-20T02:29:25;4.63;;;0.53;;
70270;SDS011;57680;54.292;18.598;2023-12-20T02:31:51;2.83;;;0.45;;
70270;SDS011;57680;54.292;18.598;2023-12-20T02:34:16;5.43;;;1.13;;
70270;SDS011;57680;54.292;18.598;2023-12-20T02:36:42;4.70;;;0.83;;
70270;SDS011;57680;54.292;18.598;2023-12-20T02:39:07;2.67;;;0.47;;
70270;SDS011;57680;54.292;18.598;2023-12-20T02:41:32;4.70;;;1.27;;
70270;SDS011;57680;54.292;18.598;2023-12-20T02:43:57;5.00;;;0.70;;
70270;SDS011;57680;54.292;18.598;2023-12-20T02:46:23;3.30;;;0.50;;
70270;SDS011;57680;54.292;18.598;2023-12-20T02:48:48;3.07;;;0.60;;
70270;SDS011;57680;54.292;18.598;2023-12-20T02:51:13;5.60;;;0.93;;
70270;SDS011;57680;54.292;18.598;2023-12-20T02:53:39;3.17;;;0.67;;
70270;SDS011;57680;54.292;18.598;2023-12-20T02:56:04;5.20;;;0.70;;
70270;SDS011;57680;54.292;18.598;2023-12-20T02:58:29;2.08;;;0.40;;
70270;SDS011;57680;54.292;18.598;2023-12-20T03:00:55;6.00;;;0.97;;
70270;SDS011;57680;54.292;18.598;2023-12-20T03:03:20;4.57;;;0.80;;
70270;SDS011;57680;54.292;18.598;2023-12-20T03:05:45;6.50;;;0.70;;
70270;SDS011;57680;54.292;18.598;2023-12-20T03:08:10;5.27;;;0.90;;
70270;SDS011;57680;54.292;18.598;2023-12-20T03:10:36;4.97;;;1.07;;
70270;SDS011;57680;54.292;18.598;2023-12-20T03:13:01;3.90;;;0.80;;
70270;SDS011;57680;54.292;18.598;2023-12-20T03:15:26;7.07;;;0.70;;
70270;SDS011;57680;54.292;18.598;2023-12-20T03:17:51;4.53;;;0.80;;
70270;SDS011;57680;54.292;18.598;2023-12-20T03:20:17;5.90;;;0.73;;
70270;SDS011;57680;54.292;18.598;2023-12-20T03:22:42;5.23;;;0.80;;
70270;SDS011;57680;54.292;18.598;2023-12-20T03:25:07;3.67;;;1.00;;
70270;SDS011;57680;54.292;18.598;2023-12-20T03:27:33;3.40;;;0.60;;
70270;SDS011;57680;54.292;18.598;2023-12-20T03:29:58;3.13;;;0.90;;
70270;SDS011;57680;54.292;18.598;2023-12-20T03:32:23;5.23;;;0.73;;
70270;SDS011;57680;54.292;18.598;2023-12-20T03:34:48;4.20;;;0.67;;
70270;SDS011;57680;54.292;18.598;2023-12-20T03:37:14;5.53;;;0.60;;
70270;SDS011;57680;54.292;18.598;2023-12-20T03:39:39;5.70;;;0.60;;
70270;SDS011;57680;54.292;18.598;2023-12-20T03:42:04;4.63;;;1.10;;
70270;SDS011;57680;54.292;18.598;2023-12-20T03:44:30;4.80;;;0.73;;
70270;SDS011;57680;54.292;18.598;2023-12-20T03:46:55;3.00;;;0.87;;
70270;SDS011;57680;54.292;18.598;2023-12-20T03:49:20;5.63;;;1.00;;
70270;SDS011;57680;54.292;18.598;2023-12-20T03:51:46;7.07;;;1.27;;
70270;SDS011;57680;54.292;18.598;2023-12-20T03:54:11;6.57;;;0.93;;
70270;SDS011;57680;54.292;18.598;2023-12-20T03:56:36;3.47;;;0.97;;
70270;SDS011;57680;54.292;18.598;2023-12-20T03:59:01;5.03;;;0.70;;
70270;SDS011;57680;54.292;18.598;2023-12-20T04:01:27;7.10;;;1.03;;
70270;SDS011;57680;54.292;18.598;2023-12-20T04:03:52;8.07;;;1.20;;
70270;SDS011;57680;54.292;18.598;2023-12-20T04:06:17;5.13;;;1.03;;
70270;SDS011;57680;54.292;18.598;2023-12-20T04:08:43;4.07;;;0.60;;
70270;SDS011;57680;54.292;18.598;2023-12-20T04:11:08;4.77;;;1.07;;
70270;SDS011;57680;54.292;18.598;2023-12-20T04:13:33;6.13;;;0.90;;
70270;SDS011;57680;54.292;18.598;2023-12-20T04:15:59;5.17;;;1.33;;
70270;SDS011;57680;54.292;18.598;2023-12-20T04:18:24;6.83;;;1.30;;
70270;SDS011;57680;54.292;18.598;2023-12-20T04:20:49;6.47;;;1.17;;
70270;SDS011;57680;54.292;18.598;2023-12-20T04:23:15;8.80;;;1.10;;
70270;SDS011;57680;54.292;18.598;2023-12-20T04:25:40;7.30;;;1.10;;
70270;SDS011;57680;54.292;18.598;2023-12-20T04:28:05;4.60;;;0.93;;
70270;SDS011;57680;54.292;18.598;2023-12-20T04:30:31;8.47;;;1.37;;
70270;SDS011;57680;54.292;18.598;2023-12-20T04:32:56;7.80;;;1.20;;
70270;SDS011;57680;54.292;18.598;2023-12-20T04:35:21;5.60;;;1.07;;
70270;SDS011;57680;54.292;18.598;2023-12-20T04:37:46;4.73;;;1.27;;
70270;SDS011;57680;54.292;18.598;2023-12-20T04:40:12;3.47;;;0.80;;
70270;SDS011;57680;54.292;18.598;2023-12-20T04:42:37;4.53;;;1.30;;
70270;SDS011;57680;54.292;18.598;2023-12-20T04:45:02;7.07;;;1.40;;
70270;SDS011;57680;54.292;18.598;2023-12-20T04:47:28;8.80;;;1.10;;
70270;SDS011;57680;54.292;18.598;2023-12-20T04:49:53;5.53;;;1.07;;
70270;SDS011;57680;54.292;18.598;2023-12-20T04:52:18;5.53;;;1.00;;
70270;SDS011;57680;54.292;18.598;2023-12-20T04:54:44;5.90;;;1.17;;
70270;SDS011;57680;54.292;18.598;2023-12-20T04:57:09;8.67;;;1.27;;
70270;SDS011;57680;54.292;18.598;2023-12-20T04:59:34;6.07;;;1.20;;
70270;SDS011;57680;54.292;18.598;2023-12-20T05:01:59;10.37;;;1.30;;
70270;SDS011;57680;54.292;18.598;2023-12-20T05:04:25;7.87;;;1.30;;
70270;SDS011;57680;54.292;18.598;2023-12-20T05:06:50;8.57;;;1.40;;
70270;SDS011;57680;54.292;18.598;2023-12-20T05:09:15;10.00;;;1.77;;
70270;SDS011;57680;54.292;18.598;2023-12-20T05:11:41;12.03;;;2.57;;
70270;SDS011;57680;54.292;18.598;2023-12-20T05:14:06;13.77;;;2.30;;
70270;SDS011;57680;54.292;18.598;2023-12-20T05:16:31;8.97;;;1.70;;
70270;SDS011;57680;54.292;18.598;2023-12-20T05:18:57;6.80;;;1.30;;
70270;SDS011;57680;54.292;18.598;2023-12-20T05:21:22;7.63;;;1.20;;
70270;SDS011;57680;54.292;18.598;2023-12-20T05:23:47;4.90;;;1.10;;
70270;SDS011;57680;54.292;18.598;2023-12-20T05:26:12;5.83;;;1.20;;
70270;SDS011;57680;54.292;18.598;2023-12-20T05:28:38;5.80;;;1.00;;
70270;SDS011;57680;54.292;18.598;2023-12-20T05:31:03;6.23;;;1.03;;
70270;SDS011;57680;54.292;18.598;2023-12-20T05:33:28;5.17;;;0.80;;
70270;SDS011;57680;54.292;18.598;2023-12-20T05:35:54;5.90;;;1.50;;
70270;SDS011;57680;54.292;18.598;2023-12-20T05:38:19;7.37;;;1.33;;
70270;SDS011;57680;54.292;18.598;2023-12-20T05:40:44;3.37;;;1.00;;
70270;SDS011;57680;54.292;18.598;2023-12-20T05:43:09;8.33;;;1.20;;
70270;SDS011;57680;54.292;18.598;2023-12-20T05:45:34;5.80;;;1.37;;
70270;SDS011;57680;54.292;18.598;2023-12-20T05:48:00;7.33;;;1.30;;
70270;SDS011;57680;54.292;18.598;2023-12-20T05:50:25;6.37;;;1.67;;
70270;SDS011;57680;54.292;18.598;2023-12-20T05:52:50;7.00;;;1.57;;
70270;SDS011;57680;54.292;18.598;2023-12-20T05:55:16;5.85;;;1.00;;
70270;SDS011;57680;54.292;18.598;2023-12-20T05:57:41;4.07;;;1.57;;
70270;SDS011;57680;54.292;18.598;2023-12-20T06:00:07;5.10;;;1.40;;
70270;SDS011;57680;54.292;18.598;2023-12-20T06:02:32;7.40;;;1.37;;
70270;SDS011;57680;54.292;18.598;2023-12-20T06:04:58;5.87;;;2.07;;
70270;SDS011;57680;54.292;18.598;2023-12-20T06:07:23;5.63;;;1.20;;
70270;SDS011;57680;54.292;18.598;2023-12-20T06:09:48;9.50;;;1.13;;
70270;SDS011;57680;54.292;18.598;2023-12-20T06:12:13;8.33;;;2.00;;
70270;SDS011;57680;54.292;18.598;2023-12-20T06:14:39;3.60;;;1.37;;
70270;SDS011;57680;54.292;18.598;2023-12-20T06:17:04;4.27;;;1.17;;
70270;SDS011;57680;54.292;18.598;2023-12-20T06:19:29;3.50;;;1.17;;
70270;SDS011;57680;54.292;18.598;2023-12-20T06:21:54;3.97;;;1.10;;
70270;SDS011;57680;54.292;18.598;2023-12-20T06:24:20;4.27;;;1.33;;
70270;SDS011;57680;54.292;18.598;2023-12-20T06:26:45;6.30;;;1.33;;
70270;SDS011;57680;54.292;18.598;2023-12-20T06:29:10;5.50;;;1.40;;
70270;SDS011;57680;54.292;18.598;2023-12-20T06:31:36;6.37;;;1.83;;
70270;SDS011;57680;54.292;18.598;2023-12-20T06:34:01;7.70;;;1.67;;
70270;SDS011;57680;54.292;18.598;2023-12-20T06:36:26;7.72;;;1.60;;
70270;SDS011;57680;54.292;18.598;2023-12-20T06:38:52;7.10;;;1.53;;
70270;SDS011;57680;54.292;18.598;2023-12-20T06:41:17;8.93;;;1.50;;
70270;SDS011;57680;54.292;18.598;2023-12-20T06:43:42;7.77;;;1.67;;
70270;SDS011;57680;54.292;18.598;2023-12-20T06:46:08;7.23;;;1.60;;
70270;SDS011;57680;54.292;18.598;2023-12-20T06:48:34;9.15;;;1.70;;
70270;SDS011;57680;54.292;18.598;2023-12-20T06:51:00;6.90;;;1.53;;
70270;SDS011;57680;54.292;18.598;2023-12-20T06:53:26;5.90;;;1.55;;
70270;SDS011;57680;54.292;18.598;2023-12-20T06:55:51;6.27;;;1.73;;
70270;SDS011;57680;54.292;18.598;2023-12-20T06:58:17;7.87;;;1.90;;
70270;SDS011;57680;54.292;18.598;2023-12-20T07:00:42;9.37;;;2.20;;
70270;SDS011;57680;54.292;18.598;2023-12-20T07:03:08;8.03;;;2.27;;
70270;SDS011;57680;54.292;18.598;2023-12-20T07:05:34;9.05;;;1.90;;
70270;SDS011;57680;54.292;18.598;2023-12-20T07:07:59;10.30;;;1.80;;
70270;SDS011;57680;54.292;18.598;2023-12-20T07:10:25;4.97;;;1.67;;
70270;SDS011;57680;54.292;18.598;2023-12-20T07:12:50;7.63;;;1.60;;
70270;SDS011;57680;54.292;18.598;2023-12-20T07:15:15;7.30;;;1.50;;
70270;SDS011;57680;54.292;18.598;2023-12-20T07:17:41;11.10;;;1.90;;
70270;SDS011;57680;54.292;18.598;2023-12-20T07:20:06;12.47;;;2.03;;
70270;SDS011;57680;54.292;18.598;2023-12-20T07:22:33;6.70;;;1.50;;
70270;SDS011;57680;54.292;18.598;2023-12-20T07:24:58;6.18;;;1.83;;
70270;SDS011;57680;54.292;18.598;2023-12-20T07:27:24;7.10;;;1.60;;
70270;SDS011;57680;54.292;18.598;2023-12-20T07:29:50;6.17;;;1.33;;
70270;SDS011;57680;54.292;18.598;2023-12-20T07:32:15;5.50;;;1.50;;
70270;SDS011;57680;54.292;18.598;2023-12-20T07:34:41;6.20;;;2.07;;
70270;SDS011;57680;54.292;18.598;2023-12-20T07:37:06;5.47;;;1.43;;
70270;SDS011;57680;54.292;18.598;2023-12-20T07:39:31;8.50;;;1.63;;
70270;SDS011;57680;54.292;18.598;2023-12-20T07:41:56;5.20;;;1.40;;
70270;SDS011;57680;54.292;18.598;2023-12-20T07:44:22;8.10;;;1.40;;
70270;SDS011;57680;54.292;18.598;2023-12-20T07:46:47;4.27;;;1.43;;
70270;SDS011;57680;54.292;18.598;2023-12-20T07:49:12;6.23;;;1.57;;
70270;SDS011;57680;54.292;18.598;2023-12-20T07:51:37;9.03;;;1.50;;
70270;SDS011;57680;54.292;18.598;2023-12-20T07:54:03;5.50;;;1.50;;
70270;SDS011;57680;54.292;18.598;2023-12-20T07:56:28;10.90;;;1.30;;
70270;SDS011;57680;54.292;18.598;2023-12-20T07:58:53;4.63;;;1.60;;
70270;SDS011;57680;54.292;18.598;2023-12-20T08:01:19;5.33;;;1.30;;
70270;SDS011;57680;54.292;18.598;2023-12-20T08:03:44;5.70;;;1.92;;
70270;SDS011;57680;54.292;18.598;2023-12-20T08:06:10;9.00;;;1.60;;
70270;SDS011;57680;54.292;18.598;2023-12-20T08:08:35;7.07;;;1.80;;
70270;SDS011;57680;54.292;18.598;2023-12-20T08:11:00;7.00;;;1.50;;
70270;SDS011;57680;54.292;18.598;2023-12-20T08:13:26;5.43;;;1.23;;
70270;SDS011;57680;54.292;18.598;2023-12-20T08:15:51;7.17;;;1.40;;
70270;SDS011;57680;54.292;18.598;2023-12-20T08:18:17;6.90;;;1.20;;
70270;SDS011;57680;54.292;18.598;2023-12-20T08:20:42;3.87;;;0.93;;
70270;SDS011;57680;54.292;18.598;2023-12-20T08:23:08;7.17;;;1.13;;
70270;SDS011;57680;54.292;18.598;2023-12-20T08:25:33;6.28;;;1.33;;
70270;SDS011;57680;54.292;18.598;2023-12-20T08:27:58;5.53;;;1.30;;
70270;SDS011;57680;54.292;18.598;2023-12-20T08:30:24;5.80;;;1.13;;
70270;SDS011;57680;54.292;18.598;2023-12-20T08:32:49;11.23;;;1.20;;
70270;SDS011;57680;54.292;18.598;2023-12-20T08:35:14;5.27;;;1.03;;
70270;SDS011;57680;54.292;18.598;2023-12-20T08:37:40;10.93;;;1.40;;
70270;SDS011;57680;54.292;18.598;2023-12-20T08:40:05;9.97;;;1.33;;
70270;SDS011;57680;54.292;18.598;2023-12-20T08:42:31;7.70;;;1.50;;
70270;SDS011;57680;54.292;18.598;2023-12-20T08:44:59;5.43;;;1.57;;
70270;SDS011;57680;54.292;18.598;2023-12-20T08:47:25;8.25;;;1.08;;
70270;SDS011;57680;54.292;18.598;2023-12-20T08:49:50;7.90;;;1.30;;
70270;SDS011;57680;54.292;18.598;2023-12-20T08:52:15;9.97;;;1.23;;
70270;SDS011;57680;54.292;18.598;2023-12-20T08:54:41;6.82;;;1.15;;
70270;SDS011;57680;54.292;18.598;2023-12-20T08:57:06;6.07;;;1.10;;
70270;SDS011;57680;54.292;18.598;2023-12-20T08:59:31;7.87;;;1.87;;
70270;SDS011;57680;54.292;18.598;2023-12-20T09:01:57;6.67;;;1.30;;
70270;SDS011;57680;54.292;18.598;2023-12-20T09:04:22;8.23;;;1.43;;
70270;SDS011;57680;54.292;18.598;2023-12-20T09:06:47;4.73;;;1.37;;
70270;SDS011;57680;54.292;18.598;2023-12-20T09:09:13;6.60;;;1.67;;
70270;SDS011;57680;54.292;18.598;2023-12-20T09:11:38;5.53;;;1.37;;
70270;SDS011;57680;54.292;18.598;2023-12-20T09:14:03;7.67;;;1.63;;
70270;SDS011;57680;54.292;18.598;2023-12-20T09:16:28;5.70;;;1.80;;
70270;SDS011;57680;54.292;18.598;2023-12-20T09:18:54;5.67;;;1.43;;
70270;SDS011;57680;54.292;18.598;2023-12-20T09:21:19;4.47;;;1.10;;
70270;SDS011;57680;54.292;18.598;2023-12-20T09:23:44;6.30;;;1.33;;
70270;SDS011;57680;54.292;18.598;2023-12-20T09:26:09;5.83;;;1.10;;
70270;SDS011;57680;54.292;18.598;2023-12-20T09:28:35;6.50;;;1.53;;
70270;SDS011;57680;54.292;18.598;2023-12-20T09:31:00;4.53;;;1.10;;
70270;SDS011;57680;54.292;18.598;2023-12-20T09:33:25;3.23;;;1.40;;
70270;SDS011;57680;54.292;18.598;2023-12-20T09:35:51;6.63;;;1.40;;
70270;SDS011;57680;54.292;18.598;2023-12-20T09:38:16;6.07;;;1.27;;
70270;SDS011;57680;54.292;18.598;2023-12-20T09:40:41;7.20;;;1.80;;
70270;SDS011;57680;54.292;18.598;2023-12-20T09:43:10;8.07;;;1.80;;
70270;SDS011;57680;54.292;18.598;2023-12-20T09:45:38;7.53;;;1.58;;
70270;SDS011;57680;54.292;18.598;2023-12-20T09:48:04;10.82;;;1.70;;
70270;SDS011;57680;54.292;18.598;2023-12-20T09:50:30;9.00;;;1.80;;
70270;SDS011;57680;54.292;18.598;2023-12-20T09:52:56;4.90;;;1.43;;
70270;SDS011;57680;54.292;18.598;2023-12-20T09:55:23;5.83;;;1.73;;
70270;SDS011;57680;54.292;18.598;2023-12-20T09:57:50;5.07;;;1.67;;
70270;SDS011;57680;54.292;18.598;2023-12-20T10:00:15;6.00;;;1.10;;
70270;SDS011;57680;54.292;18.598;2023-12-20T10:02:45;6.93;;;1.60;;
70270;SDS011;57680;54.292;18.598;2023-12-20T10:05:15;3.85;;;1.40;;
70270;SDS011;57680;54.292;18.598;2023-12-20T10:07:42;5.10;;;1.23;;
70270;SDS011;57680;54.292;18.598;2023-12-20T10:10:07;4.45;;;1.17;;
70270;SDS011;57680;54.292;18.598;2023-12-20T10:12:32;5.10;;;1.30;;
70270;SDS011;57680;54.292;18.598;2023-12-20T10:14:58;5.47;;;1.20;;
70270;SDS011;57680;54.292;18.598;2023-12-20T10:17:23;5.10;;;1.10;;
70270;SDS011;57680;54.292;18.598;2023-12-20T10:19:48;5.60;;;1.50;;
70270;SDS011;57680;54.292;18.598;2023-12-20T10:22:14;5.90;;;1.10;;
70270;SDS011;57680;54.292;18.598;2023-12-20T10:24:40;5.50;;;1.52;;
70270;SDS011;57680;54.292;18.598;2023-12-20T10:27:06;4.50;;;1.20;;
70270;SDS011;57680;54.292;18.598;2023-12-20T10:29:33;6.13;;;1.63;;
70270;SDS011;57680;54.292;18.598;2023-12-20T10:34:47;5.43;;;1.30;;
70270;SDS011;57680;54.292;18.598;2023-12-20T10:37:12;4.80;;;1.30;;
70270;SDS011;57680;54.292;18.598;2023-12-20T10:39:37;4.57;;;1.60;;
70270;SDS011;57680;54.292;18.598;2023-12-20T10:42:04;6.68;;;1.77;;
70270;SDS011;57680;54.292;18.598;2023-12-20T10:44:30;3.90;;;1.30;;
70270;SDS011;57680;54.292;18.598;2023-12-20T10:46:55;5.60;;;1.73;;
70270;SDS011;57680;54.292;18.598;2023-12-20T10:49:21;5.10;;;1.38;;
70270;SDS011;57680;54.292;18.598;2023-12-20T10:51:47;5.57;;;1.43;;
70270;SDS011;57680;54.292;18.598;2023-12-20T10:54:13;6.30;;;1.70;;
70270;SDS011;57680;54.292;18.598;2023-12-20T10:56:38;6.70;;;1.70;;
70270;SDS011;57680;54.292;18.598;2023-12-20T10:59:04;6.45;;;1.95;;
70270;SDS011;57680;54.292;18.598;2023-12-20T11:01:33;7.88;;;2.00;;
70270;SDS011;57680;54.292;18.598;2023-12-20T11:04:00;7.53;;;2.08;;
70270;SDS011;57680;54.292;18.598;2023-12-20T11:09:26;6.10;;;2.10;;
70270;SDS011;57680;54.292;18.598;2023-12-20T11:14:40;8.60;;;2.20;;
70270;SDS011;57680;54.292;18.598;2023-12-20T11:17:11;8.32;;;2.08;;
70270;SDS011;57680;54.292;18.598;2023-12-20T11:19:38;7.18;;;2.40;;
70270;SDS011;57680;54.292;18.598;2023-12-20T11:22:30;7.57;;;2.47;;
70270;SDS011;57680;54.292;18.598;2023-12-20T11:25:02;8.63;;;2.53;;
70270;SDS011;57680;54.292;18.598;2023-12-20T11:27:30;5.85;;;2.42;;
70270;SDS011;57680;54.292;18.598;2023-12-20T11:29:56;7.90;;;2.40;;
70270;SDS011;57680;54.292;18.598;2023-12-20T11:34:54;10.23;;;2.63;;
70270;SDS011;57680;54.292;18.598;2023-12-20T11:37:20;6.93;;;2.03;;
70270;SDS011;57680;54.292;18.598;2023-12-20T11:39:53;8.00;;;2.40;;
70270;SDS011;57680;54.292;18.598;2023-12-20T11:42:25;6.87;;;2.27;;
70270;SDS011;57680;54.292;18.598;2023-12-20T11:44:50;7.83;;;2.57;;
70270;SDS011;57680;54.292;18.598;2023-12-20T11:47:16;7.90;;;1.92;;
70270;SDS011;57680;54.292;18.598;2023-12-20T11:49:41;6.80;;;1.83;;
70270;SDS011;57680;54.292;18.598;2023-12-20T11:52:06;9.37;;;1.90;;
70270;SDS011;57680;54.292;18.598;2023-12-20T11:54:32;6.23;;;1.67;;
70270;SDS011;57680;54.292;18.598;2023-12-20T11:56:57;5.70;;;2.40;;
70270;SDS011;57680;54.292;18.598;2023-12-20T11:59:24;7.50;;;2.15;;
70270;SDS011;57680;54.292;18.598;2023-12-20T12:01:50;7.50;;;2.23;;
70270;SDS011;57680;54.292;18.598;2023-12-20T12:04:15;5.50;;;1.80;;
70270;SDS011;57680;54.292;18.598;2023-12-20T12:06:41;5.33;;;1.80;;
70270;SDS011;57680;54.292;18.598;2023-12-20T12:09:06;8.53;;;1.80;;
70270;SDS011;57680;54.292;18.598;2023-12-20T12:11:31;4.93;;;1.43;;
70270;SDS011;57680;54.292;18.598;2023-12-20T12:13:57;5.57;;;1.70;;
70270;SDS011;57680;54.292;18.598;2023-12-20T12:16:23;4.17;;;1.77;;
70270;SDS011;57680;54.292;18.598;2023-12-20T12:18:55;3.70;;;1.40;;
70270;SDS011;57680;54.292;18.598;2023-12-20T12:21:21;6.47;;;1.80;;
70270;SDS011;57680;54.292;18.598;2023-12-20T12:23:46;4.90;;;1.80;;
70270;SDS011;57680;54.292;18.598;2023-12-20T12:26:11;4.87;;;1.60;;
70270;SDS011;57680;54.292;18.598;2023-12-20T12:28:39;5.60;;;1.90;;
70270;SDS011;57680;54.292;18.598;2023-12-20T12:31:05;5.10;;;1.60;;
70270;SDS011;57680;54.292;18.598;2023-12-20T12:33:30;3.67;;;1.60;;
70270;SDS011;57680;54.292;18.598;2023-12-20T12:35:56;4.30;;;1.23;;
70270;SDS011;57680;54.292;18.598;2023-12-20T12:38:22;3.67;;;1.52;;
70270;SDS011;57680;54.292;18.598;2023-12-20T12:40:47;4.23;;;1.30;;
70270;SDS011;57680;54.292;18.598;2023-12-20T12:43:13;7.97;;;1.42;;
70270;SDS011;57680;54.292;18.598;2023-12-20T12:45:38;3.37;;;1.13;;
70270;SDS011;57680;54.292;18.598;2023-12-20T12:48:04;5.33;;;1.60;;
70270;SDS011;57680;54.292;18.598;2023-12-20T12:50:30;6.03;;;1.67;;
70270;SDS011;57680;54.292;18.598;2023-12-20T12:52:56;4.80;;;1.27;;
70270;SDS011;57680;54.292;18.598;2023-12-20T12:55:21;3.27;;;1.20;;
70270;SDS011;57680;54.292;18.598;2023-12-20T12:57:46;4.27;;;1.50;;
70270;SDS011;57680;54.292;18.598;2023-12-20T13:00:12;2.93;;;1.47;;
70270;SDS011;57680;54.292;18.598;2023-12-20T13:02:37;4.23;;;1.30;;
70270;SDS011;57680;54.292;18.598;2023-12-20T13:05:03;3.73;;;1.47;;
70270;SDS011;57680;54.292;18.598;2023-12-20T13:07:29;3.45;;;1.30;;
70270;SDS011;57680;54.292;18.598;2023-12-20T13:09:54;3.27;;;1.10;;
70270;SDS011;57680;54.292;18.598;2023-12-20T13:12:19;6.03;;;1.33;;
70270;SDS011;57680;54.292;18.598;2023-12-20T13:14:44;3.10;;;1.20;;
70270;SDS011;57680;54.292;18.598;2023-12-20T13:17:10;3.57;;;1.20;;
70270;SDS011;57680;54.292;18.598;2023-12-20T13:19:35;4.10;;;1.60;;
70270;SDS011;57680;54.292;18.598;2023-12-20T13:22:00;4.00;;;1.30;;
70270;SDS011;57680;54.292;18.598;2023-12-20T13:24:26;3.80;;;1.13;;
70270;SDS011;57680;54.292;18.598;2023-12-20T13:26:51;3.00;;;1.23;;
70270;SDS011;57680;54.292;18.598;2023-12-20T13:29:16;2.50;;;1.00;;
70270;SDS011;57680;54.292;18.598;2023-12-20T13:31:42;3.60;;;1.07;;
70270;SDS011;57680;54.292;18.598;2023-12-20T13:34:07;3.43;;;1.20;;
70270;SDS011;57680;54.292;18.598;2023-12-20T13:36:32;2.27;;;0.87;;
70270;SDS011;57680;54.292;18.598;2023-12-20T13:38:58;2.83;;;1.10;;
70270;SDS011;57680;54.292;18.598;2023-12-20T13:41:23;3.27;;;1.10;;
70270;SDS011;57680;54.292;18.598;2023-12-20T13:43:48;1.77;;;0.77;;
70270;SDS011;57680;54.292;18.598;2023-12-20T13:46:13;2.93;;;0.80;;
70270;SDS011;57680;54.292;18.598;2023-12-20T13:48:39;2.58;;;1.00;;
70270;SDS011;57680;54.292;18.598;2023-12-20T13:51:04;3.30;;;1.17;;
70270;SDS011;57680;54.292;18.598;2023-12-20T13:53:30;3.50;;;1.20;;
70270;SDS011;57680;54.292;18.598;2023-12-20T13:55:55;2.83;;;1.27;;
70270;SDS011;57680;54.292;18.598;2023-12-20T13:58:20;3.43;;;1.10;;
70270;SDS011;57680;54.292;18.598;2023-12-20T14:00:46;6.13;;;1.00;;
70270;SDS011;57680;54.292;18.598;2023-12-20T14:03:11;3.03;;;1.20;;
70270;SDS011;57680;54.292;18.598;2023-12-20T14:05:36;2.60;;;0.90;;
70270;SDS011;57680;54.292;18.598;2023-12-20T14:08:02;3.50;;;1.30;;
70270;SDS011;57680;54.292;18.598;2023-12-20T14:10:27;2.73;;;0.90;;
70270;SDS011;57680;54.292;18.598;2023-12-20T14:12:53;4.50;;;1.40;;
70270;SDS011;57680;54.292;18.598;2023-12-20T14:15:19;3.22;;;1.17;;
70270;SDS011;57680;54.292;18.598;2023-12-20T14:17:44;4.83;;;1.27;;
70270;SDS011;57680;54.292;18.598;2023-12-20T14:20:09;3.17;;;1.10;;
70270;SDS011;57680;54.292;18.598;2023-12-20T14:22:35;3.05;;;1.20;;
70270;SDS011;57680;54.292;18.598;2023-12-20T14:25:01;3.37;;;1.43;;
70270;SDS011;57680;54.292;18.598;2023-12-20T14:27:26;4.00;;;1.20;;
70270;SDS011;57680;54.292;18.598;2023-12-20T14:29:52;4.23;;;1.50;;
70270;SDS011;57680;54.292;18.598;2023-12-20T14:32:17;5.93;;;1.63;;
70270;SDS011;57680;54.292;18.598;2023-12-20T14:34:42;4.43;;;1.90;;